sensor_id;sensor_type;location;lat;lon;timestamp;pressure;altitude;pressure_sealevel;temperature;humidity
59767;BME280;46248;58.364;25.582;2023-07-29T00:01:02;99526.69;;;12.45;100.00
59767;BME280;46248;58.364;25.582;2023-07-29T00:04:23;99525.63;;;12.47;100.00
59767;BME280;46248;58.364;25.582;2023-07-29T00:07:45;99522.25;;;12.45;100.00
59767;BME280;46248;58.364;25.582;2023-07-29T00:11:06;99531.31;;;12.41;100.00
59767;BME280;46248;58.364;25.582;2023-07-29T00:14:28;99531.56;;;12.38;100.00
59767;BME280;46248;58.364;25.582;2023-07-29T00:17:51;99530.94;;;12.34;100.00
59767;BME280;46248;58.364;25.582;2023-07-29T00:21:13;99521.59;;;12.30;100.00
59767;BME280;46248;58.364;25.582;2023-07-29T00:24:34;99524.22;;;12.30;100.00
59767;BME280;46248;58.364;25.582;2023-07-29T00:27:56;99500.78;;;12.16;100.00
59767;BME280;46248;58.364;25.582;2023-07-29T00:31:18;99523.72;;;12.25;100.00
59767;BME280;46248;58.364;25.582;2023-07-29T00:34:41;99508.88;;;12.13;100.00
59767;BME280;46248;58.364;25.582;2023-07-29T00:38:03;99514.78;;;12.17;100.00
59767;BME280;46248;58.364;25.582;2023-07-29T00:41:25;99511.41;;;12.14;100.00
59767;BME280;46248;58.364;25.582;2023-07-29T00:44:47;99507.97;;;12.14;100.00
59767;BME280;46248;58.364;25.582;2023-07-29T00:48:08;99507.22;;;12.12;100.00
59767;BME280;46248;58.364;25.582;2023-07-29T00:51:32;99509.97;;;12.10;100.00
59767;BME280;46248;58.364;25.582;2023-07-29T00:54:53;99504.97;;;12.07;100.00
59767;BME280;46248;58.364;25.582;2023-07-29T00:58:15;99505.88;;;12.06;100.00
59767;BME280;46248;58.364;25.582;2023-07-29T01:01:37;99504.22;;;12.05;100.00
59767;BME280;46248;58.364;25.582;2023-07-29T01:05:00;99509.47;;;12.05;100.00
59767;BME280;46248;58.364;25.582;2023-07-29T01:08:28;99500.88;;;12.03;100.00
59767;BME280;46248;58.364;25.582;2023-07-29T01:11:58;99498.47;;;12.00;100.00
59767;BME280;46248;58.364;25.582;2023-07-29T01:15:25;99507.41;;;11.98;100.00
59767;BME280;46248;58.364;25.582;2023-07-29T01:18:49;99509.09;;;11.99;100.00
59767;BME280;46248;58.364;25.582;2023-07-29T01:22:16;99515.25;;;11.98;100.00
59767;BME280;46248;58.364;25.582;2023-07-29T01:25:39;99516.22;;;11.97;100.00
59767;BME280;46248;58.364;25.582;2023-07-29T01:29:01;99516.44;;;11.94;100.00
59767;BME280;46248;58.364;25.582;2023-07-29T01:32:26;99518.13;;;11.95;100.00
59767;BME280;46248;58.364;25.582;2023-07-29T01:35:52;99511.94;;;11.96;100.00
59767;BME280;46248;58.364;25.582;2023-07-29T01:39:17;99500.50;;;11.84;100.00
59767;BME280;46248;58.364;25.582;2023-07-29T01:42:40;99511.44;;;11.90;100.00
59767;BME280;46248;58.364;25.582;2023-07-29T01:46:02;99509.84;;;11.88;100.00
59767;BME280;46248;58.364;25.582;2023-07-29T01:49:23;99512.25;;;11.91;100.00
59767;BME280;46248;58.364;25.582;2023-07-29T01:52:45;99504.38;;;11.91;100.00
59767;BME280;46248;58.364;25.582;2023-07-29T01:56:07;99495.47;;;11.94;100.00
59767;BME280;46248;58.364;25.582;2023-07-29T01:59:30;99493.22;;;12.00;100.00
59767;BME280;46248;58.364;25.582;2023-07-29T02:02:52;99491.94;;;12.06;100.00
59767;BME280;46248;58.364;25.582;2023-07-29T02:06:14;99497.56;;;12.12;100.00
59767;BME280;46248;58.364;25.582;2023-07-29T02:09:35;99499.63;;;12.20;100.00
59767;BME280;46248;58.364;25.582;2023-07-29T02:12:57;99507.88;;;12.27;100.00
59767;BME280;46248;58.364;25.582;2023-07-29T02:16:20;99502.06;;;12.34;100.00
59767;BME280;46248;58.364;25.582;2023-07-29T02:19:43;99506.00;;;12.40;100.00
59767;BME280;46248;58.364;25.582;2023-07-29T02:23:05;99504.63;;;12.47;100.00
59767;BME280;46248;58.364;25.582;2023-07-29T02:26:26;99507.59;;;12.54;100.00
59767;BME280;46248;58.364;25.582;2023-07-29T02:29:48;99502.94;;;12.57;100.00
59767;BME280;46248;58.364;25.582;2023-07-29T02:33:11;99513.72;;;12.66;100.00
59767;BME280;46248;58.364;25.582;2023-07-29T02:36:33;99509.78;;;12.71;100.00
59767;BME280;46248;58.364;25.582;2023-07-29T02:39:56;99502.38;;;12.76;100.00
59767;BME280;46248;58.364;25.582;2023-07-29T02:43:17;99505.41;;;12.83;100.00
59767;BME280;46248;58.364;25.582;2023-07-29T02:46:39;99511.13;;;12.88;100.00
59767;BME280;46248;58.364;25.582;2023-07-29T02:50:03;99509.09;;;12.92;100.00
59767;BME280;46248;58.364;25.582;2023-07-29T02:53:25;99510.41;;;12.97;100.00
59767;BME280;46248;58.364;25.582;2023-07-29T02:56:46;99509.94;;;13.03;100.00
59767;BME280;46248;58.364;25.582;2023-07-29T03:00:09;99514.72;;;13.10;100.00
59767;BME280;46248;58.364;25.582;2023-07-29T03:03:32;99520.94;;;13.20;100.00
59767;BME280;46248;58.364;25.582;2023-07-29T03:06:55;99522.88;;;13.29;100.00
59767;BME280;46248;58.364;25.582;2023-07-29T03:10:17;99528.25;;;13.39;100.00
59767;BME280;46248;58.364;25.582;2023-07-29T03:13:38;99528.13;;;13.40;100.00
59767;BME280;46248;58.364;25.582;2023-07-29T03:17:02;99532.78;;;13.48;100.00
59767;BME280;46248;58.364;25.582;2023-07-29T03:20:24;99532.69;;;13.49;100.00
59767;BME280;46248;58.364;25.582;2023-07-29T03:23:47;99535.06;;;13.52;100.00
59767;BME280;46248;58.364;25.582;2023-07-29T03:27:09;99528.69;;;13.55;100.00
59767;BME280;46248;58.364;25.582;2023-07-29T03:30:30;99525.13;;;13.56;100.00
59767;BME280;46248;58.364;25.582;2023-07-29T03:33:52;99531.72;;;13.62;100.00
59767;BME280;46248;58.364;25.582;2023-07-29T03:37:14;99537.41;;;13.67;100.00
59767;BME280;46248;58.364;25.582;2023-07-29T03:40:37;99530.84;;;13.72;100.00
59767;BME280;46248;58.364;25.582;2023-07-29T03:43:59;99538.22;;;13.79;100.00
59767;BME280;46248;58.364;25.582;2023-07-29T03:47:20;99533.56;;;13.82;100.00
59767;BME280;46248;58.364;25.582;2023-07-29T03:50:42;99534.75;;;13.89;100.00
59767;BME280;46248;58.364;25.582;2023-07-29T03:54:04;99538.19;;;14.01;100.00
59767;BME280;46248;58.364;25.582;2023-07-29T03:57:27;99525.47;;;14.06;100.00
59767;BME280;46248;58.364;25.582;2023-07-29T04:00:49;99550.94;;;14.17;100.00
59767;BME280;46248;58.364;25.582;2023-07-29T04:04:11;99550.78;;;14.18;100.00
59767;BME280;46248;58.364;25.582;2023-07-29T04:07:33;99545.88;;;14.25;100.00
59767;BME280;46248;58.364;25.582;2023-07-29T04:10:54;99551.34;;;14.33;100.00
59767;BME280;46248;58.364;25.582;2023-07-29T04:14:17;99551.88;;;14.48;100.00
59767;BME280;46248;58.364;25.582;2023-07-29T04:17:39;99538.53;;;14.61;100.00
59767;BME280;46248;58.364;25.582;2023-07-29T04:21:01;99531.47;;;14.82;100.00
59767;BME280;46248;58.364;25.582;2023-07-29T04:24:22;99533.78;;;14.97;100.00
59767;BME280;46248;58.364;25.582;2023-07-29T04:27:44;99534.56;;;15.18;100.00
59767;BME280;46248;58.364;25.582;2023-07-29T04:31:07;99541.75;;;15.37;100.00
59767;BME280;46248;58.364;25.582;2023-07-29T04:34:29;99535.66;;;15.46;100.00
59767;BME280;46248;58.364;25.582;2023-07-29T04:37:51;99536.09;;;15.51;100.00
59767;BME280;46248;58.364;25.582;2023-07-29T04:41:13;99556.72;;;15.67;100.00
59767;BME280;46248;58.364;25.582;2023-07-29T04:44:34;99553.69;;;15.82;100.00
59767;BME280;46248;58.364;25.582;2023-07-29T04:47:58;99544.94;;;15.81;100.00
59767;BME280;46248;58.364;25.582;2023-07-29T04:51:21;99544.25;;;15.79;100.00
59767;BME280;46248;58.364;25.582;2023-07-29T04:54:43;99552.88;;;15.81;100.00
59767;BME280;46248;58.364;25.582;2023-07-29T04:58:04;99549.56;;;15.89;100.00
59767;BME280;46248;58.364;25.582;2023-07-29T05:01:26;99549.13;;;15.84;100.00
59767;BME280;46248;58.364;25.582;2023-07-29T05:04:50;99549.25;;;15.82;100.00
59767;BME280;46248;58.364;25.582;2023-07-29T05:08:11;99540.47;;;15.72;100.00
59767;BME280;46248;58.364;25.582;2023-07-29T05:11:33;99555.25;;;15.94;100.00
59767;BME280;46248;58.364;25.582;2023-07-29T05:14:55;99556.28;;;16.22;100.00
59767;BME280;46248;58.364;25.582;2023-07-29T05:18:16;99557.50;;;16.57;100.00
59767;BME280;46248;58.364;25.582;2023-07-29T05:21:40;99569.03;;;16.75;98.46
59767;BME280;46248;58.364;25.582;2023-07-29T05:25:03;99577.69;;;16.77;98.46
59767;BME280;46248;58.364;25.582;2023-07-29T05:28:25;99554.28;;;16.82;97.04
59767;BME280;46248;58.364;25.582;2023-07-29T05:31:47;99570.22;;;17.20;96.36
59767;BME280;46248;58.364;25.582;2023-07-29T05:35:08;99565.44;;;17.33;95.37
59767;BME280;46248;58.364;25.582;2023-07-29T05:38:32;99576.63;;;17.54;94.95
59767;BME280;46248;58.364;25.582;2023-07-29T05:41:53;99567.78;;;17.73;92.71
59767;BME280;46248;58.364;25.582;2023-07-29T05:45:15;99552.78;;;17.64;92.63
59767;BME280;46248;58.364;25.582;2023-07-29T05:48:37;99564.94;;;17.84;91.55
59767;BME280;46248;58.364;25.582;2023-07-29T05:51:58;99568.44;;;18.03;91.29
59767;BME280;46248;58.364;25.582;2023-07-29T05:55:21;99561.81;;;18.17;88.65
59767;BME280;46248;58.364;25.582;2023-07-29T05:58:43;99568.47;;;18.21;88.33
59767;BME280;46248;58.364;25.582;2023-07-29T06:02:05;99553.38;;;18.21;87.21
59767;BME280;46248;58.364;25.582;2023-07-29T06:05:27;99555.22;;;18.39;88.35
59767;BME280;46248;58.364;25.582;2023-07-29T06:08:49;99554.59;;;18.63;87.64
59767;BME280;46248;58.364;25.582;2023-07-29T06:12:13;99560.59;;;18.91;87.18
59767;BME280;46248;58.364;25.582;2023-07-29T06:15:34;99564.16;;;18.99;85.15
59767;BME280;46248;58.364;25.582;2023-07-29T06:18:57;99571.28;;;18.99;85.46
59767;BME280;46248;58.364;25.582;2023-07-29T06:22:18;99569.34;;;18.83;84.82
59767;BME280;46248;58.364;25.582;2023-07-29T06:25:40;99575.34;;;18.85;84.27
59767;BME280;46248;58.364;25.582;2023-07-29T06:29:03;99580.50;;;18.87;82.57
59767;BME280;46248;58.364;25.582;2023-07-29T06:32:24;99581.06;;;18.98;82.90
59767;BME280;46248;58.364;25.582;2023-07-29T06:35:46;99580.78;;;18.84;82.22
59767;BME280;46248;58.364;25.582;2023-07-29T06:39:08;99574.16;;;18.80;83.14
59767;BME280;46248;58.364;25.582;2023-07-29T06:42:30;99569.06;;;18.86;82.58
59767;BME280;46248;58.364;25.582;2023-07-29T06:45:53;99568.38;;;19.10;80.98
59767;BME280;46248;58.364;25.582;2023-07-29T06:49:15;99572.44;;;18.96;80.85
59767;BME280;46248;58.364;25.582;2023-07-29T06:52:37;99573.84;;;18.83;82.99
59767;BME280;46248;58.364;25.582;2023-07-29T06:56:01;99578.94;;;18.76;83.78
59767;BME280;46248;58.364;25.582;2023-07-29T06:59:22;99583.94;;;18.79;83.67
59767;BME280;46248;58.364;25.582;2023-07-29T07:02:47;99587.38;;;18.97;83.46
59767;BME280;46248;58.364;25.582;2023-07-29T07:06:09;99590.44;;;19.11;81.72
59767;BME280;46248;58.364;25.582;2023-07-29T07:09:31;99584.06;;;19.30;80.29
59767;BME280;46248;58.364;25.582;2023-07-29T07:12:52;99585.81;;;19.47;80.41
59767;BME280;46248;58.364;25.582;2023-07-29T07:16:14;99588.34;;;19.57;78.69
59767;BME280;46248;58.364;25.582;2023-07-29T07:19:37;99586.78;;;19.72;79.68
59767;BME280;46248;58.364;25.582;2023-07-29T07:22:59;99580.03;;;19.86;77.96
59767;BME280;46248;58.364;25.582;2023-07-29T07:26:21;99577.41;;;19.94;79.57
59767;BME280;46248;58.364;25.582;2023-07-29T07:29:42;99575.53;;;19.78;77.99
59767;BME280;46248;58.364;25.582;2023-07-29T07:33:04;99583.16;;;19.73;78.28
59767;BME280;46248;58.364;25.582;2023-07-29T07:36:27;99580.28;;;19.66;78.94
59767;BME280;46248;58.364;25.582;2023-07-29T07:39:49;99579.88;;;19.87;78.99
59767;BME280;46248;58.364;25.582;2023-07-29T07:43:10;99584.56;;;20.02;77.86
59767;BME280;46248;58.364;25.582;2023-07-29T07:46:32;99577.59;;;20.01;78.39
59767;BME280;46248;58.364;25.582;2023-07-29T07:49:54;99567.16;;;20.07;78.50
59767;BME280;46248;58.364;25.582;2023-07-29T07:53:17;99568.50;;;20.20;77.55
59767;BME280;46248;58.364;25.582;2023-07-29T07:56:40;99566.84;;;20.35;76.82
59767;BME280;46248;58.364;25.582;2023-07-29T08:00:02;99572.47;;;20.24;76.99
59767;BME280;46248;58.364;25.582;2023-07-29T08:03:24;99580.78;;;20.21;77.89
59767;BME280;46248;58.364;25.582;2023-07-29T08:06:46;99574.97;;;20.17;77.92
59767;BME280;46248;58.364;25.582;2023-07-29T08:10:10;99581.63;;;20.13;77.54
59767;BME280;46248;58.364;25.582;2023-07-29T08:13:31;99574.16;;;20.33;77.05
59767;BME280;46248;58.364;25.582;2023-07-29T08:16:53;99579.31;;;20.51;76.77
59767;BME280;46248;58.364;25.582;2023-07-29T08:20:15;99576.22;;;20.55;75.04
59767;BME280;46248;58.364;25.582;2023-07-29T08:23:37;99572.72;;;20.71;74.46
59767;BME280;46248;58.364;25.582;2023-07-29T08:27:00;99570.53;;;20.91;72.20
59767;BME280;46248;58.364;25.582;2023-07-29T08:30:22;99582.38;;;20.64;72.44
59767;BME280;46248;58.364;25.582;2023-07-29T08:33:43;99573.66;;;20.29;74.47
59767;BME280;46248;58.364;25.582;2023-07-29T08:37:06;99577.75;;;19.91;75.10
59767;BME280;46248;58.364;25.582;2023-07-29T08:40:29;99570.44;;;19.85;76.64
59767;BME280;46248;58.364;25.582;2023-07-29T08:44:01;99569.16;;;20.13;75.86
59767;BME280;46248;58.364;25.582;2023-07-29T08:47:26;99563.59;;;20.57;73.49
59767;BME280;46248;58.364;25.582;2023-07-29T08:50:49;99562.91;;;20.80;71.06
59767;BME280;46248;58.364;25.582;2023-07-29T08:54:12;99564.06;;;20.94;70.47
59767;BME280;46248;58.364;25.582;2023-07-29T08:57:35;99555.22;;;21.10;71.20
59767;BME280;46248;58.364;25.582;2023-07-29T09:00:59;99560.63;;;21.33;70.22
59767;BME280;46248;58.364;25.582;2023-07-29T09:04:21;99561.63;;;21.32;70.34
59767;BME280;46248;58.364;25.582;2023-07-29T09:07:44;99556.47;;;21.30;70.59
59767;BME280;46248;58.364;25.582;2023-07-29T09:11:06;99573.28;;;21.31;68.34
59767;BME280;46248;58.364;25.582;2023-07-29T09:14:28;99565.81;;;21.42;63.55
59767;BME280;46248;58.364;25.582;2023-07-29T09:17:52;99559.25;;;21.53;66.35
59767;BME280;46248;58.364;25.582;2023-07-29T09:21:15;99565.16;;;21.71;64.04
59767;BME280;46248;58.364;25.582;2023-07-29T09:24:37;99569.94;;;21.84;66.19
59767;BME280;46248;58.364;25.582;2023-07-29T09:27:59;99578.97;;;21.75;65.40
59767;BME280;46248;58.364;25.582;2023-07-29T09:31:22;99577.00;;;21.69;66.68
59767;BME280;46248;58.364;25.582;2023-07-29T09:34:46;99584.69;;;21.64;65.17
59767;BME280;46248;58.364;25.582;2023-07-29T09:38:08;99593.59;;;21.32;64.28
59767;BME280;46248;58.364;25.582;2023-07-29T09:41:29;99582.34;;;20.80;64.87
59767;BME280;46248;58.364;25.582;2023-07-29T09:44:52;99595.47;;;20.66;67.63
59767;BME280;46248;58.364;25.582;2023-07-29T09:48:14;99590.50;;;20.79;65.36
59767;BME280;46248;58.364;25.582;2023-07-29T09:51:38;99590.16;;;20.98;66.99
59767;BME280;46248;58.364;25.582;2023-07-29T09:55:01;99591.94;;;21.14;65.14
59767;BME280;46248;58.364;25.582;2023-07-29T09:58:26;99582.59;;;21.26;63.16
59767;BME280;46248;58.364;25.582;2023-07-29T10:01:48;99599.56;;;21.34;63.65
59767;BME280;46248;58.364;25.582;2023-07-29T10:05:11;99606.19;;;21.54;61.21
59767;BME280;46248;58.364;25.582;2023-07-29T10:08:34;99603.69;;;21.61;61.55
59767;BME280;46248;58.364;25.582;2023-07-29T10:11:58;99607.44;;;21.75;61.64
59767;BME280;46248;58.364;25.582;2023-07-29T10:15:20;99607.78;;;21.71;60.82
59767;BME280;46248;58.364;25.582;2023-07-29T10:18:42;99619.75;;;21.36;59.77
59767;BME280;46248;58.364;25.582;2023-07-29T10:22:05;99620.41;;;21.05;61.16
59767;BME280;46248;58.364;25.582;2023-07-29T10:25:38;99609.81;;;20.73;58.88
59767;BME280;46248;58.364;25.582;2023-07-29T10:29:04;99612.94;;;20.85;61.60
59767;BME280;46248;58.364;25.582;2023-07-29T10:32:30;99606.13;;;21.07;60.96
59767;BME280;46248;58.364;25.582;2023-07-29T10:35:54;99603.91;;;21.35;60.55
59767;BME280;46248;58.364;25.582;2023-07-29T10:39:16;99612.66;;;21.68;62.14
59767;BME280;46248;58.364;25.582;2023-07-29T10:42:59;99614.34;;;21.61;58.10
59767;BME280;46248;58.364;25.582;2023-07-29T10:46:22;99614.22;;;21.46;57.41
59767;BME280;46248;58.364;25.582;2023-07-29T10:49:47;99619.56;;;21.46;58.96
59767;BME280;46248;58.364;25.582;2023-07-29T10:53:09;99610.53;;;21.55;56.86
59767;BME280;46248;58.364;25.582;2023-07-29T10:56:33;99621.19;;;21.55;59.45
59767;BME280;46248;58.364;25.582;2023-07-29T10:59:57;99627.97;;;21.66;57.85
59767;BME280;46248;58.364;25.582;2023-07-29T11:03:19;99618.31;;;21.65;57.89
59767;BME280;46248;58.364;25.582;2023-07-29T11:07:18;99628.50;;;21.53;57.22
59767;BME280;46248;58.364;25.582;2023-07-29T11:10:43;99623.66;;;21.57;58.46
59767;BME280;46248;58.364;25.582;2023-07-29T11:14:05;99639.44;;;21.66;58.09
59767;BME280;46248;58.364;25.582;2023-07-29T11:17:32;99640.44;;;21.73;57.63
59767;BME280;46248;58.364;25.582;2023-07-29T11:20:55;99635.25;;;21.72;57.44
59767;BME280;46248;58.364;25.582;2023-07-29T11:24:18;99650.56;;;21.78;57.85
59767;BME280;46248;58.364;25.582;2023-07-29T11:27:40;99660.19;;;21.87;57.18
59767;BME280;46248;58.364;25.582;2023-07-29T11:31:04;99652.34;;;21.94;57.64
59767;BME280;46248;58.364;25.582;2023-07-29T11:34:32;99657.97;;;21.99;56.71
59767;BME280;46248;58.364;25.582;2023-07-29T11:37:54;99658.72;;;21.85;57.56
59767;BME280;46248;58.364;25.582;2023-07-29T11:41:20;99663.75;;;21.71;58.23
59767;BME280;46248;58.364;25.582;2023-07-29T11:44:42;99652.94;;;21.73;59.67
59767;BME280;46248;58.364;25.582;2023-07-29T11:48:06;99662.75;;;21.72;58.59
59767;BME280;46248;58.364;25.582;2023-07-29T11:51:29;99667.25;;;21.72;58.65
59767;BME280;46248;58.364;25.582;2023-07-29T11:54:51;99665.59;;;21.71;59.78
59767;BME280;46248;58.364;25.582;2023-07-29T11:58:12;99670.41;;;21.76;58.86
59767;BME280;46248;58.364;25.582;2023-07-29T12:01:34;99668.72;;;21.83;59.42
59767;BME280;46248;58.364;25.582;2023-07-29T12:04:57;99665.72;;;21.86;59.78
59767;BME280;46248;58.364;25.582;2023-07-29T12:08:21;99659.56;;;21.85;60.24
59767;BME280;46248;58.364;25.582;2023-07-29T12:11:44;99668.84;;;21.89;61.32
59767;BME280;46248;58.364;25.582;2023-07-29T12:15:07;99672.53;;;21.88;61.08
59767;BME280;46248;58.364;25.582;2023-07-29T12:18:30;99670.56;;;21.74;60.81
59767;BME280;46248;58.364;25.582;2023-07-29T12:21:52;99669.22;;;21.78;60.31
59767;BME280;46248;58.364;25.582;2023-07-29T12:25:16;99668.03;;;21.89;61.36
59767;BME280;46248;58.364;25.582;2023-07-29T12:28:37;99666.84;;;21.91;61.27
59767;BME280;46248;58.364;25.582;2023-07-29T12:32:00;99658.31;;;21.96;60.55
59767;BME280;46248;58.364;25.582;2023-07-29T12:35:22;99668.03;;;21.89;60.47
59767;BME280;46248;58.364;25.582;2023-07-29T12:38:44;99670.84;;;21.87;60.23
59767;BME280;46248;58.364;25.582;2023-07-29T12:42:07;99669.53;;;21.83;60.70
59767;BME280;46248;58.364;25.582;2023-07-29T12:45:35;99676.53;;;21.84;59.64
59767;BME280;46248;58.364;25.582;2023-07-29T12:49:00;99677.19;;;21.86;59.72
59767;BME280;46248;58.364;25.582;2023-07-29T12:52:21;99682.03;;;21.83;58.96
59767;BME280;46248;58.364;25.582;2023-07-29T12:55:43;99679.69;;;21.88;60.28
59767;BME280;46248;58.364;25.582;2023-07-29T12:59:06;99679.78;;;22.03;59.92
59767;BME280;46248;58.364;25.582;2023-07-29T13:02:27;99677.63;;;22.06;57.32
59767;BME280;46248;58.364;25.582;2023-07-29T13:05:49;99683.47;;;22.02;57.25
59767;BME280;46248;58.364;25.582;2023-07-29T13:09:11;99692.16;;;21.95;57.33
59767;BME280;46248;58.364;25.582;2023-07-29T13:12:33;99690.66;;;21.93;56.04
59767;BME280;46248;58.364;25.582;2023-07-29T13:15:56;99695.84;;;21.86;55.90
59767;BME280;46248;58.364;25.582;2023-07-29T13:19:21;99683.22;;;21.80;55.84
59767;BME280;46248;58.364;25.582;2023-07-29T13:22:42;99684.22;;;21.79;56.47
59767;BME280;46248;58.364;25.582;2023-07-29T13:26:04;99685.19;;;21.86;57.56
59767;BME280;46248;58.364;25.582;2023-07-29T13:29:26;99689.22;;;21.82;56.13
59767;BME280;46248;58.364;25.582;2023-07-29T13:32:49;99687.22;;;21.76;56.44
59767;BME280;46248;58.364;25.582;2023-07-29T13:36:11;99684.41;;;21.69;56.22
59767;BME280;46248;58.364;25.582;2023-07-29T13:39:33;99686.22;;;21.69;57.62
59767;BME280;46248;58.364;25.582;2023-07-29T13:42:55;99688.56;;;21.72;56.70
59767;BME280;46248;58.364;25.582;2023-07-29T13:46:17;99686.22;;;21.77;57.25
59767;BME280;46248;58.364;25.582;2023-07-29T13:49:43;99681.34;;;21.89;57.04
59767;BME280;46248;58.364;25.582;2023-07-29T13:53:04;99675.50;;;21.93;55.81
59767;BME280;46248;58.364;25.582;2023-07-29T13:56:27;99675.56;;;21.77;56.04
59767;BME280;46248;58.364;25.582;2023-07-29T13:59:48;99685.84;;;21.88;56.96
59767;BME280;46248;58.364;25.582;2023-07-29T14:03:10;99684.69;;;21.91;56.30
59767;BME280;46248;58.364;25.582;2023-07-29T14:06:34;99684.97;;;21.96;54.46
59767;BME280;46248;58.364;25.582;2023-07-29T14:10:06;99677.53;;;21.83;53.41
59767;BME280;46248;58.364;25.582;2023-07-29T14:13:28;99683.91;;;21.74;53.38
59767;BME280;46248;58.364;25.582;2023-07-29T14:16:50;99678.25;;;21.69;55.18
59767;BME280;46248;58.364;25.582;2023-07-29T14:20:13;99683.75;;;21.76;56.11
59767;BME280;46248;58.364;25.582;2023-07-29T14:23:36;99689.00;;;21.92;56.33
59767;BME280;46248;58.364;25.582;2023-07-29T14:26:58;99682.38;;;21.88;54.22
59767;BME280;46248;58.364;25.582;2023-07-29T14:30:20;99688.38;;;21.82;53.89
59767;BME280;46248;58.364;25.582;2023-07-29T14:33:41;99685.06;;;21.63;53.43
59767;BME280;46248;58.364;25.582;2023-07-29T14:37:05;99688.41;;;21.65;53.71
59767;BME280;46248;58.364;25.582;2023-07-29T14:40:28;99693.06;;;21.63;54.59
59767;BME280;46248;58.364;25.582;2023-07-29T14:43:50;99694.91;;;21.63;55.64
59767;BME280;46248;58.364;25.582;2023-07-29T14:47:11;99689.09;;;21.67;54.34
59767;BME280;46248;58.364;25.582;2023-07-29T14:50:33;99690.06;;;21.75;55.35
59767;BME280;46248;58.364;25.582;2023-07-29T14:53:55;99694.22;;;21.77;55.45
59767;BME280;46248;58.364;25.582;2023-07-29T14:57:18;99682.94;;;21.67;55.03
59767;BME280;46248;58.364;25.582;2023-07-29T15:00:40;99694.56;;;21.74;55.40
59767;BME280;46248;58.364;25.582;2023-07-29T15:04:02;99696.72;;;21.70;55.59
59767;BME280;46248;58.364;25.582;2023-07-29T15:07:24;99694.91;;;21.63;55.14
59767;BME280;46248;58.364;25.582;2023-07-29T15:10:46;99699.06;;;21.57;55.42
59767;BME280;46248;58.364;25.582;2023-07-29T15:14:09;99700.75;;;21.50;53.77
59767;BME280;46248;58.364;25.582;2023-07-29T15:17:31;99701.94;;;21.47;54.11
59767;BME280;46248;58.364;25.582;2023-07-29T15:20:53;99701.97;;;21.39;55.49
59767;BME280;46248;58.364;25.582;2023-07-29T15:24:14;99695.44;;;21.42;55.56
59767;BME280;46248;58.364;25.582;2023-07-29T15:27:37;99705.25;;;21.41;57.27
59767;BME280;46248;58.364;25.582;2023-07-29T15:31:01;99704.97;;;21.36;56.99
59767;BME280;46248;58.364;25.582;2023-07-29T15:34:23;99710.28;;;21.36;56.94
59767;BME280;46248;58.364;25.582;2023-07-29T15:37:46;99707.44;;;21.38;57.43
59767;BME280;46248;58.364;25.582;2023-07-29T15:41:08;99711.13;;;21.37;57.15
59767;BME280;46248;58.364;25.582;2023-07-29T15:44:30;99713.78;;;21.37;57.86
59767;BME280;46248;58.364;25.582;2023-07-29T15:47:53;99707.28;;;21.39;58.41
59767;BME280;46248;58.364;25.582;2023-07-29T15:51:15;99705.91;;;21.35;58.03
59767;BME280;46248;58.364;25.582;2023-07-29T15:54:37;99707.06;;;21.33;59.09
59767;BME280;46248;58.364;25.582;2023-07-29T15:57:59;99700.09;;;21.32;58.72
59767;BME280;46248;58.364;25.582;2023-07-29T16:01:22;99712.63;;;21.39;59.42
59767;BME280;46248;58.364;25.582;2023-07-29T16:04:46;99716.59;;;21.43;60.36
59767;BME280;46248;58.364;25.582;2023-07-29T16:08:07;99720.41;;;21.41;59.67
59767;BME280;46248;58.364;25.582;2023-07-29T16:11:29;99722.06;;;21.42;60.57
59767;BME280;46248;58.364;25.582;2023-07-29T16:14:50;99717.06;;;21.55;60.88
59767;BME280;46248;58.364;25.582;2023-07-29T16:18:12;99724.84;;;21.81;60.12
59767;BME280;46248;58.364;25.582;2023-07-29T16:21:35;99726.41;;;22.15;60.84
59767;BME280;46248;58.364;25.582;2023-07-29T16:24:56;99729.19;;;22.30;59.94
59767;BME280;46248;58.364;25.582;2023-07-29T16:28:18;99732.06;;;22.20;60.58
59767;BME280;46248;58.364;25.582;2023-07-29T16:31:40;99729.44;;;22.12;61.06
59767;BME280;46248;58.364;25.582;2023-07-29T16:35:02;99728.97;;;22.00;60.92
59767;BME280;46248;58.364;25.582;2023-07-29T16:38:25;99737.78;;;22.09;61.41
59767;BME280;46248;58.364;25.582;2023-07-29T16:41:47;99725.41;;;22.24;61.65
59767;BME280;46248;58.364;25.582;2023-07-29T16:45:25;99731.91;;;22.22;61.52
59767;BME280;46248;58.364;25.582;2023-07-29T16:48:47;99732.19;;;22.27;62.04
59767;BME280;46248;58.364;25.582;2023-07-29T16:52:09;99733.25;;;22.17;62.29
59767;BME280;46248;58.364;25.582;2023-07-29T16:55:32;99732.16;;;21.87;62.75
59767;BME280;46248;58.364;25.582;2023-07-29T16:58:54;99732.00;;;21.89;62.93
59767;BME280;46248;58.364;25.582;2023-07-29T17:02:15;99736.91;;;22.25;63.23
59767;BME280;46248;58.364;25.582;2023-07-29T17:05:38;99731.63;;;22.79;61.21
59767;BME280;46248;58.364;25.582;2023-07-29T17:09:00;99726.84;;;22.97;60.89
59767;BME280;46248;58.364;25.582;2023-07-29T17:12:23;99726.28;;;22.79;61.95
59767;BME280;46248;58.364;25.582;2023-07-29T17:15:45;99735.59;;;22.83;61.61
59767;BME280;46248;58.364;25.582;2023-07-29T17:19:08;99731.09;;;22.52;61.47
59767;BME280;46248;58.364;25.582;2023-07-29T17:22:29;99733.94;;;22.51;61.71
59767;BME280;46248;58.364;25.582;2023-07-29T17:25:54;99734.25;;;22.56;62.05
59767;BME280;46248;58.364;25.582;2023-07-29T17:29:16;99743.06;;;22.56;61.61
59767;BME280;46248;58.364;25.582;2023-07-29T17:32:38;99737.81;;;22.48;61.87
59767;BME280;46248;58.364;25.582;2023-07-29T17:36:00;99727.50;;;22.37;61.85